Time;durP1;ratioP1;P1;durP2;ratioP2;P2;SDS_P1;SDS_P2;PMS_P1;PMS_P2;Temp;Humidity;BMP_temperature;BMP_pressure;BME280_temperature;BME280_humidity;BME280_pressure;Samples;Min_cycle;Max_cycle;Signal;HPM_P1;HPM_P2
2022/10/13 00:02:06;;;;;;;17.27;7.03;;;;;;;;;;5001066;28;20040;-81
2022/10/13 00:04:31;;;;;;;13.25;6.88;;;;;;;;;;4999108;28;20092;-81
2022/10/13 00:06:56;;;;;;;12.63;6.68;;;;;;;;;;5004027;28;20049;-81
2022/10/13 00:09:22;;;;;;;13.27;7.40;;;;;;;;;;5009170;28;20052;-81
2022/10/13 00:11:47;;;;;;;17.75;8.18;;;;;;;;;;5014509;28;20026;-81
2022/10/13 00:14:12;;;;;;;30.75;7.57;;;;;;;;;;5014762;28;20030;-81
2022/10/13 00:16:38;;;;;;;18.42;8.52;;;;;;;;;;5010245;28;20060;-81
2022/10/13 00:19:04;;;;;;;15.85;7.93;;;;;;;;;;5008845;28;20080;-81
2022/10/13 00:21:29;;;;;;;13.32;7.18;;;;;;;;;;5002380;28;20080;-82
2022/10/13 00:23:55;;;;;;;21.27;7.70;;;;;;;;;;5008086;28;20056;-80
2022/10/13 00:26:23;;;;;;;13.90;6.95;;;;;;;;;;5004640;28;20049;-81
2022/10/13 00:28:48;;;;;;;18.40;8.15;;;;;;;;;;5005195;28;20057;-81
2022/10/13 00:31:19;;;;;;;17.25;7.70;;;;;;;;;;5007842;28;20102;-81
2022/10/13 00:33:45;;;;;;;19.70;8.38;;;;;;;;;;5008553;28;20121;-82
2022/10/13 00:36:11;;;;;;;21.05;8.55;;;;;;;;;;5004871;28;20120;-82
2022/10/13 00:38:36;;;;;;;15.98;8.95;;;;;;;;;;5002148;28;20037;-82
2022/10/13 00:41:02;;;;;;;16.88;8.88;;;;;;;;;;5007322;28;20038;-81
2022/10/13 00:43:49;;;;;;;17.42;9.27;;;;;;;;;;5006580;28;20030;-81
2022/10/13 00:46:15;;;;;;;17.85;9.20;;;;;;;;;;5005474;28;20062;-81
2022/10/13 00:48:42;;;;;;;19.20;10.15;;;;;;;;;;5003252;28;20053;-82
2022/10/13 00:51:09;;;;;;;19.63;9.20;;;;;;;;;;5005033;28;20286;-82
2022/10/13 00:53:37;;;;;;;24.02;10.65;;;;;;;;;;5004832;28;20124;-82
2022/10/13 00:56:05;;;;;;;21.48;10.65;;;;;;;;;;5010754;28;20028;-82
2022/10/13 00:58:32;;;;;;;15.13;9.35;;;;;;;;;;5008819;28;20036;-82
2022/10/13 01:00:58;;;;;;;21.65;9.23;;;;;;;;;;5004667;28;20034;-82
2022/10/13 01:03:24;;;;;;;16.13;8.40;;;;;;;;;;5022341;28;20352;-82
2022/10/13 01:05:54;;;;;;;17.60;9.00;;;;;;;;;;5005139;28;20034;-82
2022/10/13 01:08:21;;;;;;;21.58;9.35;;;;;;;;;;5005977;28;20034;-81
2022/10/13 01:11:02;;;;;;;15.38;8.18;;;;;;;;;;5001548;28;20076;-81
2022/10/13 01:13:57;;;;;;;17.02;9.40;;;;;;;;;;5001231;28;20444;-83
2022/10/13 01:16:42;;;;;;;16.23;8.02;;;;;;;;;;5000197;28;20109;-84
2022/10/13 01:19:10;;;;;;;21.98;8.65;;;;;;;;;;5000530;28;20519;-81
2022/10/13 01:22:12;;;;;;;21.02;9.68;;;;;;;;;;5013430;28;20037;-83
2022/10/13 01:25:12;;;;;;;15.43;8.98;;;;;;;;;;4998551;28;20061;-84
2022/10/13 01:27:42;;;;;;;15.23;7.93;;;;;;;;;;4995956;28;20626;-81
2022/10/13 01:30:19;;;;;;;19.88;7.97;;;;;;;;;;5000924;28;20061;-79
2022/10/13 01:32:56;;;;;;;20.30;7.70;;;;;;;;;;5016987;28;20761;-77
2022/10/13 01:35:39;;;;;;;18.05;8.77;;;;;;;;;;5014472;28;20030;-80
2022/10/13 01:38:18;;;;;;;20.20;8.77;;;;;;;;;;5004808;28;20032;-85
2022/10/13 01:41:09;;;;;;;19.50;9.07;;;;;;;;;;4997111;28;20056;-84
2022/10/13 01:43:39;;;;;;;14.27;7.90;;;;;;;;;;4986850;28;20037;-84
2022/10/13 01:46:27;;;;;;;15.60;7.85;;;;;;;;;;4995589;28;20061;-83
2022/10/13 01:48:57;;;;;;;14.88;8.70;;;;;;;;;;4995027;28;20042;-83
2022/10/13 01:51:24;;;;;;;16.35;8.07;;;;;;;;;;4990770;28;20040;-83
2022/10/13 01:53:50;;;;;;;14.70;7.82;;;;;;;;;;4991221;28;20044;-83
2022/10/13 01:56:15;;;;;;;20.15;8.15;;;;;;;;;;4987292;28;20045;-83
2022/10/13 01:58:41;;;;;;;20.38;8.10;;;;;;;;;;4988471;28;20480;-82
2022/10/13 02:01:28;;;;;;;13.98;8.07;;;;;;;;;;4995444;28;20033;-84
2022/10/13 02:04:37;;;;;;;14.88;8.10;;;;;;;;;;4996822;28;20127;-81
2022/10/13 02:07:15;;;;;;;17.65;7.90;;;;;;;;;;5010286;28;20041;-83
2022/10/13 02:10:03;;;;;;;20.50;8.27;;;;;;;;;;4997910;28;20061;-80
2022/10/13 02:12:49;;;;;;;29.33;8.75;;;;;;;;;;4999303;28;20128;-80
2022/10/13 02:15:19;;;;;;;17.10;8.50;;;;;;;;;;4996964;28;20576;-82
2022/10/13 02:17:44;;;;;;;16.05;8.23;;;;;;;;;;4997542;28;20032;-82
2022/10/13 02:20:10;;;;;;;13.20;8.52;;;;;;;;;;4999136;28;20029;-80
2022/10/13 02:22:40;;;;;;;15.85;7.32;;;;;;;;;;4998096;28;20033;-83
2022/10/13 02:25:07;;;;;;;16.98;8.20;;;;;;;;;;4995354;28;20030;-82
2022/10/13 02:27:32;;;;;;;14.52;8.57;;;;;;;;;;4994239;28;20061;-81
2022/10/13 02:29:58;;;;;;;15.82;8.40;;;;;;;;;;5007214;28;20597;-83
2022/10/13 02:32:23;;;;;;;13.27;7.88;;;;;;;;;;4998856;28;20105;-83
2022/10/13 02:34:49;;;;;;;13.95;8.20;;;;;;;;;;4998399;28;20377;-81
2022/10/13 02:37:15;;;;;;;14.27;7.32;;;;;;;;;;4999035;28;20036;-81
2022/10/13 02:39:40;;;;;;;15.90;7.75;;;;;;;;;;5007186;28;20041;-82
2022/10/13 02:42:06;;;;;;;10.95;7.03;;;;;;;;;;5000390;28;20030;-84
2022/10/13 02:44:31;;;;;;;16.05;8.23;;;;;;;;;;4999708;28;20093;-81
2022/10/13 02:46:57;;;;;;;17.27;8.82;;;;;;;;;;4998593;28;20078;-81
2022/10/13 02:49:22;;;;;;;19.35;8.55;;;;;;;;;;5000583;28;20026;-82
2022/10/13 02:51:48;;;;;;;23.63;9.13;;;;;;;;;;5000581;28;20064;-80
2022/10/13 02:54:13;;;;;;;21.27;9.25;;;;;;;;;;4998835;28;20583;-82
2022/10/13 02:56:38;;;;;;;16.13;7.88;;;;;;;;;;4995925;28;20069;-78
2022/10/13 02:59:04;;;;;;;14.68;8.48;;;;;;;;;;4997622;28;20083;-81
2022/10/13 03:01:29;;;;;;;18.33;7.68;;;;;;;;;;4999794;28;20049;-81
2022/10/13 03:03:54;;;;;;;14.05;7.72;;;;;;;;;;5000983;28;20036;-81
2022/10/13 03:06:20;;;;;;;17.45;7.90;;;;;;;;;;5001338;28;20033;-82
2022/10/13 03:08:45;;;;;;;15.07;8.70;;;;;;;;;;5000593;28;20033;-82
2022/10/13 03:11:11;;;;;;;17.67;9.18;;;;;;;;;;5000201;28;20069;-82
2022/10/13 03:13:36;;;;;;;17.20;8.45;;;;;;;;;;4999128;28;20030;-81
2022/10/13 03:16:02;;;;;;;13.45;8.70;;;;;;;;;;4997850;28;20026;-83
2022/10/13 03:18:28;;;;;;;19.58;9.57;;;;;;;;;;4998997;28;20293;-82
2022/10/13 03:20:58;;;;;;;21.73;10.25;;;;;;;;;;5001173;28;20039;-81
2022/10/13 03:23:24;;;;;;;18.08;9.48;;;;;;;;;;5000890;28;20025;-82
2022/10/13 03:25:49;;;;;;;23.17;10.15;;;;;;;;;;4994594;28;20494;-82
2022/10/13 03:28:14;;;;;;;17.88;9.50;;;;;;;;;;4993591;28;20037;-82
2022/10/13 03:30:39;;;;;;;19.05;11.10;;;;;;;;;;4994325;28;20030;-82
2022/10/13 03:33:05;;;;;;;22.08;11.38;;;;;;;;;;5001127;28;20037;-82
2022/10/13 03:35:30;;;;;;;17.75;10.13;;;;;;;;;;4998666;28;20049;-84
2022/10/13 03:37:56;;;;;;;28.33;11.18;;;;;;;;;;4996602;28;20123;-82
2022/10/13 03:40:21;;;;;;;22.15;10.30;;;;;;;;;;4999600;28;20483;-83
2022/10/13 03:42:46;;;;;;;29.23;10.52;;;;;;;;;;4999047;28;20030;-83
2022/10/13 03:45:11;;;;;;;24.55;11.27;;;;;;;;;;4998163;28;20040;-83
2022/10/13 03:47:37;;;;;;;29.15;11.18;;;;;;;;;;4999039;28;20053;-82
2022/10/13 03:50:04;;;;;;;22.85;10.45;;;;;;;;;;5000265;28;20048;-80
2022/10/13 03:52:29;;;;;;;23.60;10.95;;;;;;;;;;4998777;28;20117;-83
2022/10/13 03:54:54;;;;;;;20.42;9.77;;;;;;;;;;4997407;28;20117;-81
2022/10/13 03:57:20;;;;;;;21.70;10.75;;;;;;;;;;4996671;28;20036;-83
2022/10/13 03:59:45;;;;;;;22.25;9.93;;;;;;;;;;4998112;28;20443;-82
2022/10/13 04:02:11;;;;;;;23.58;10.27;;;;;;;;;;4996570;28;20054;-81
2022/10/13 04:04:37;;;;;;;23.65;10.57;;;;;;;;;;5001081;28;20093;-83
2022/10/13 04:07:02;;;;;;;19.20;10.05;;;;;;;;;;5002692;28;20049;-83
2022/10/13 04:09:28;;;;;;;17.10;10.07;;;;;;;;;;5001941;28;21813;-82
2022/10/13 04:11:53;;;;;;;21.70;11.02;;;;;;;;;;5000664;28;20021;-81
2022/10/13 04:14:19;;;;;;;24.20;9.98;;;;;;;;;;4998748;28;20030;-78
2022/10/13 04:16:45;;;;;;;20.30;10.55;;;;;;;;;;4996721;28;20036;-83
2022/10/13 04:19:12;;;;;;;27.27;11.32;;;;;;;;;;4998330;28;20844;-84
2022/10/13 04:21:38;;;;;;;22.83;9.88;;;;;;;;;;4997500;28;20120;-78
2022/10/13 04:24:04;;;;;;;16.67;9.82;;;;;;;;;;4996662;28;21284;-83
2022/10/13 04:26:34;;;;;;;20.45;10.80;;;;;;;;;;5010187;28;20086;-84
2022/10/13 04:29:03;;;;;;;20.45;11.00;;;;;;;;;;5009360;28;20033;-84
2022/10/13 04:31:29;;;;;;;24.95;10.15;;;;;;;;;;5009086;28;20034;-82
2022/10/13 04:33:55;;;;;;;23.08;10.32;;;;;;;;;;5018077;28;20045;-82
2022/10/13 04:36:20;;;;;;;21.40;10.73;;;;;;;;;;5011644;28;20026;-81
2022/10/13 04:38:46;;;;;;;20.52;9.93;;;;;;;;;;5008448;28;20060;-83
2022/10/13 04:43:39;;;;;;;23.67;11.05;;;;;;;;;;4988697;28;20050;-82
2022/10/13 04:46:14;;;;;;;20.30;10.13;;;;;;;;;;4993273;28;20031;-82
2022/10/13 04:48:40;;;;;;;20.05;9.82;;;;;;;;;;4986751;28;20026;-82
2022/10/13 04:51:08;;;;;;;20.23;10.95;;;;;;;;;;4981431;28;20037;-81
2022/10/13 04:53:34;;;;;;;22.98;10.73;;;;;;;;;;4965377;28;20045;-81
2022/10/13 04:56:07;;;;;;;17.55;10.15;;;;;;;;;;4975756;28;20627;-81
2022/10/13 04:58:33;;;;;;;21.48;9.52;;;;;;;;;;4977561;28;20026;-80
2022/10/13 05:00:58;;;;;;;21.25;10.15;;;;;;;;;;4960578;28;20037;-80
2022/10/13 05:03:24;;;;;;;17.75;9.57;;;;;;;;;;4957253;28;20125;-81
2022/10/13 05:05:50;;;;;;;17.50;9.13;;;;;;;;;;4957713;28;20108;-80
2022/10/13 05:08:15;;;;;;;19.02;9.15;;;;;;;;;;4959334;28;20058;-82
2022/10/13 05:10:41;;;;;;;23.20;9.55;;;;;;;;;;4959045;28;20045;-80
2022/10/13 05:13:06;;;;;;;17.67;9.48;;;;;;;;;;4956856;28;20049;-82
2022/10/13 05:15:31;;;;;;;17.90;9.10;;;;;;;;;;4954424;28;20433;-81
2022/10/13 05:17:58;;;;;;;22.52;9.65;;;;;;;;;;4962013;28;20049;-81
2022/10/13 05:20:23;;;;;;;24.23;9.13;;;;;;;;;;4959694;28;20094;-81
2022/10/13 05:22:48;;;;;;;19.58;9.40;;;;;;;;;;4959684;28;20150;-79
2022/10/13 05:25:14;;;;;;;18.27;8.50;;;;;;;;;;4954456;28;20030;-81
2022/10/13 05:27:39;;;;;;;15.35;9.15;;;;;;;;;;4956229;28;20150;-80
2022/10/13 05:30:05;;;;;;;16.20;8.98;;;;;;;;;;4957119;28;20043;-82
2022/10/13 05:32:30;;;;;;;16.45;9.02;;;;;;;;;;4975189;28;21307;-83
2022/10/13 05:34:56;;;;;;;21.02;9.75;;;;;;;;;;4960128;28;20030;-83
2022/10/13 05:37:21;;;;;;;23.95;10.02;;;;;;;;;;4957117;28;21447;-82
2022/10/13 05:39:47;;;;;;;20.50;10.02;;;;;;;;;;4958165;28;20039;-83
2022/10/13 05:42:12;;;;;;;20.92;9.10;;;;;;;;;;4964426;28;20042;-82
2022/10/13 05:44:38;;;;;;;20.10;9.15;;;;;;;;;;4975543;28;20103;-84
2022/10/13 05:47:03;;;;;;;18.60;9.38;;;;;;;;;;4960642;28;20128;-83
2022/10/13 05:49:28;;;;;;;20.75;9.40;;;;;;;;;;4957311;28;20685;-82
2022/10/13 05:51:57;;;;;;;17.52;9.80;;;;;;;;;;4958647;28;20061;-82
2022/10/13 05:54:29;;;;;;;14.57;9.23;;;;;;;;;;4952834;28;20066;-82
2022/10/13 05:57:17;;;;;;;18.05;8.80;;;;;;;;;;4974678;28;20042;-82
2022/10/13 05:59:50;;;;;;;20.30;10.18;;;;;;;;;;4961340;28;20030;-82
2022/10/13 06:02:17;;;;;;;16.40;9.15;;;;;;;;;;4980807;28;20050;-83
2022/10/13 06:04:49;;;;;;;23.35;10.38;;;;;;;;;;4961354;28;20041;-83
2022/10/13 06:07:15;;;;;;;18.13;9.32;;;;;;;;;;4978368;28;20031;-83
2022/10/13 06:09:41;;;;;;;22.67;8.90;;;;;;;;;;4968005;28;20042;-83
2022/10/13 06:12:07;;;;;;;27.35;8.77;;;;;;;;;;4970066;28;20014;-83
2022/10/13 06:14:33;;;;;;;23.10;9.85;;;;;;;;;;4965075;28;20022;-83
2022/10/13 06:16:58;;;;;;;21.05;10.15;;;;;;;;;;4977839;28;20042;-82
2022/10/13 06:19:24;;;;;;;22.15;10.00;;;;;;;;;;4962870;28;20027;-84
2022/10/13 06:21:49;;;;;;;20.92;10.10;;;;;;;;;;4962071;28;20058;-83
2022/10/13 06:24:15;;;;;;;16.15;8.70;;;;;;;;;;4961740;28;20030;-84
2022/10/13 06:26:40;;;;;;;16.52;9.07;;;;;;;;;;4964702;28;20027;-83
2022/10/13 06:29:05;;;;;;;16.08;8.88;;;;;;;;;;4963467;28;20416;-83
2022/10/13 06:31:31;;;;;;;17.77;8.75;;;;;;;;;;4958936;28;20126;-83
2022/10/13 06:33:57;;;;;;;22.20;9.02;;;;;;;;;;4980242;28;20023;-84
2022/10/13 06:36:22;;;;;;;26.27;10.50;;;;;;;;;;4962471;28;20117;-83
2022/10/13 06:38:48;;;;;;;21.60;9.98;;;;;;;;;;4963087;28;20093;-85
2022/10/13 06:41:13;;;;;;;18.75;8.80;;;;;;;;;;4968182;28;20428;-84
2022/10/13 06:43:39;;;;;;;19.48;8.85;;;;;;;;;;4965670;28;20444;-82
2022/10/13 06:46:05;;;;;;;21.85;9.50;;;;;;;;;;4965435;28;20118;-84
2022/10/13 06:48:30;;;;;;;22.23;9.15;;;;;;;;;;4966030;28;20049;-85
2022/10/13 06:51:01;;;;;;;15.48;9.43;;;;;;;;;;4967959;28;20041;-84
2022/10/13 06:53:26;;;;;;;23.48;9.40;;;;;;;;;;4963301;28;20495;-84
2022/10/13 06:55:55;;;;;;;18.52;9.57;;;;;;;;;;4982191;28;20035;-84
2022/10/13 06:58:21;;;;;;;28.42;10.65;;;;;;;;;;4958416;28;20445;-85
2022/10/13 07:00:46;;;;;;;18.20;9.43;;;;;;;;;;4983901;28;20027;-83
2022/10/13 07:03:11;;;;;;;16.02;8.82;;;;;;;;;;4961668;28;20054;-85
2022/10/13 07:05:37;;;;;;;27.08;10.40;;;;;;;;;;4976043;28;20035;-83
2022/10/13 07:08:02;;;;;;;22.30;10.00;;;;;;;;;;4973235;28;20029;-86
2022/10/13 07:10:28;;;;;;;18.20;10.63;;;;;;;;;;4975424;28;20425;-84
2022/10/13 07:12:53;;;;;;;22.30;10.95;;;;;;;;;;4970569;28;20027;-83
2022/10/13 07:15:18;;;;;;;25.85;10.20;;;;;;;;;;4968242;28;20097;-83
2022/10/13 07:17:44;;;;;;;23.02;11.77;;;;;;;;;;4963489;28;20027;-83
2022/10/13 07:20:09;;;;;;;24.40;11.40;;;;;;;;;;4963310;28;20023;-84
2022/10/13 07:22:35;;;;;;;19.40;10.98;;;;;;;;;;4961574;28;20037;-81
2022/10/13 07:25:00;;;;;;;23.75;11.20;;;;;;;;;;4983951;28;20039;-81
2022/10/13 07:27:26;;;;;;;24.23;11.43;;;;;;;;;;4998319;28;20035;-82
2022/10/13 07:29:51;;;;;;;26.77;11.52;;;;;;;;;;4982503;28;20435;-82
2022/10/13 07:32:17;;;;;;;19.65;10.82;;;;;;;;;;4964760;28;20027;-83
2022/10/13 07:34:42;;;;;;;31.52;11.45;;;;;;;;;;4971138;28;20031;-81
2022/10/13 07:37:08;;;;;;;23.27;10.75;;;;;;;;;;4970087;28;20031;-83
2022/10/13 07:39:33;;;;;;;23.50;10.73;;;;;;;;;;4965211;28;20231;-83
2022/10/13 07:41:59;;;;;;;21.45;10.40;;;;;;;;;;4969772;28;20369;-83
2022/10/13 07:44:24;;;;;;;27.50;11.05;;;;;;;;;;4975580;28;20031;-83
2022/10/13 07:46:50;;;;;;;23.58;9.05;;;;;;;;;;4967752;28;20516;-84
2022/10/13 07:49:15;;;;;;;24.02;9.50;;;;;;;;;;4971193;28;20335;-81
2022/10/13 07:51:40;;;;;;;22.55;10.18;;;;;;;;;;4970365;28;20027;-81
2022/10/13 07:54:06;;;;;;;19.13;9.65;;;;;;;;;;4970620;28;20023;-82
2022/10/13 07:56:31;;;;;;;24.58;9.05;;;;;;;;;;4971565;28;20027;-83
2022/10/13 07:58:57;;;;;;;18.92;8.27;;;;;;;;;;4967342;28;20486;-83
2022/10/13 08:01:22;;;;;;;18.08;8.63;;;;;;;;;;4981444;28;20022;-84
2022/10/13 08:03:48;;;;;;;18.02;8.80;;;;;;;;;;4974260;28;20026;-82
2022/10/13 08:06:13;;;;;;;16.88;8.32;;;;;;;;;;4969550;28;20031;-82
2022/10/13 08:08:39;;;;;;;14.93;8.18;;;;;;;;;;4971920;28;20034;-82
2022/10/13 08:11:08;;;;;;;19.15;8.23;;;;;;;;;;4975609;28;20023;-81
2022/10/13 08:13:34;;;;;;;16.30;8.38;;;;;;;;;;4996029;28;20049;-83
2022/10/13 08:16:00;;;;;;;18.15;8.43;;;;;;;;;;4968216;28;20031;-83
2022/10/13 08:18:26;;;;;;;13.63;7.45;;;;;;;;;;4969133;28;20074;-83
2022/10/13 08:20:51;;;;;;;14.55;7.97;;;;;;;;;;4974127;28;20031;-84
2022/10/13 08:23:17;;;;;;;13.60;7.70;;;;;;;;;;4979387;28;20386;-83
2022/10/13 08:25:43;;;;;;;13.18;6.80;;;;;;;;;;4973726;28;20086;-84
2022/10/13 08:28:20;;;;;;;15.20;7.38;;;;;;;;;;4978034;28;20178;-84
2022/10/13 08:30:46;;;;;;;14.50;6.57;;;;;;;;;;4982344;28;20034;-84
2022/10/13 08:33:12;;;;;;;17.35;6.97;;;;;;;;;;4984444;28;20027;-84
2022/10/13 08:35:37;;;;;;;14.82;6.97;;;;;;;;;;4975380;28;20568;-82
2022/10/13 08:38:03;;;;;;;14.43;6.22;;;;;;;;;;4979403;28;20054;-83
2022/10/13 08:40:28;;;;;;;17.27;6.32;;;;;;;;;;4972949;28;20038;-82
2022/10/13 08:42:54;;;;;;;13.65;6.50;;;;;;;;;;4966653;28;20023;-82
2022/10/13 08:45:26;;;;;;;10.75;6.05;;;;;;;;;;4974089;28;20746;-84
2022/10/13 08:47:55;;;;;;;15.52;6.15;;;;;;;;;;4977360;28;20082;-83
2022/10/13 08:50:23;;;;;;;19.95;6.30;;;;;;;;;;4988052;28;20023;-82
2022/10/13 08:52:56;;;;;;;11.70;5.70;;;;;;;;;;4977277;28;20484;-82
2022/10/13 08:55:41;;;;;;;9.85;5.30;;;;;;;;;;4976725;28;20448;-84
2022/10/13 08:58:42;;;;;;;13.35;5.43;;;;;;;;;;4976206;28;20110;-84
2022/10/13 09:01:08;;;;;;;14.38;6.07;;;;;;;;;;4938197;29;20027;-84
2022/10/13 09:03:59;;;;;;;11.18;5.13;;;;;;;;;;4975272;28;20027;-83
2022/10/13 09:06:44;;;;;;;13.20;5.60;;;;;;;;;;4964891;28;20382;-85
2022/10/13 09:09:29;;;;;;;8.57;5.18;;;;;;;;;;4977675;28;20114;-83
2022/10/13 09:15:17;;;;;;;10.98;5.35;;;;;;;;;;4970995;28;20097;-82
2022/10/13 09:21:54;;;;;;;12.75;4.95;;;;;;;;;;4982990;28;20034;-84
2022/10/13 09:27:47;;;;;;;14.53;4.63;;;;;;;;;;4979419;28;20045;-83
2022/10/13 09:37:20;;;;;;;16.37;4.83;;;;;;;;;;4980111;28;20037;-83
2022/10/13 09:40:21;;;;;;;13.13;4.68;;;;;;;;;;4974720;28;20271;-83
2022/10/13 09:42:51;;;;;;;6.50;3.95;;;;;;;;;;4960332;28;20031;-83
2022/10/13 09:46:11;;;;;;;7.57;4.20;;;;;;;;;;4973697;28;20254;-83
2022/10/13 09:52:05;;;;;;;11.43;4.05;;;;;;;;;;4922475;28;20204;-82
2022/10/13 09:58:23;;;;;;;11.50;5.28;;;;;;;;;;4880001;29;20095;-82
2022/10/13 10:00:51;;;;;;;14.18;5.25;;;;;;;;;;4879820;29;20036;-83
2022/10/13 10:03:19;;;;;;;12.75;4.00;;;;;;;;;;4950033;28;20038;-83
2022/10/13 10:05:58;;;;;;;10.18;5.00;;;;;;;;;;4973625;28;20090;-83
2022/10/13 10:08:44;;;;;;;8.60;3.80;;;;;;;;;;4967093;28;20026;-83
2022/10/13 10:11:19;;;;;;;10.65;4.32;;;;;;;;;;4985168;28;20030;-79
2022/10/13 10:13:44;;;;;;;8.82;4.30;;;;;;;;;;4982069;28;20076;-84
2022/10/13 10:16:40;;;;;;;6.03;3.70;;;;;;;;;;4966230;28;20057;-84
2022/10/13 10:23:04;;;;;;;9.05;3.53;;;;;;;;;;4964547;28;20086;-83
2022/10/13 10:26:12;;;;;;;10.20;4.00;;;;;;;;;;4982226;28;20042;-83
2022/10/13 10:28:58;;;;;;;10.20;4.10;;;;;;;;;;4933271;28;20073;-83
2022/10/13 10:34:57;;;;;;;8.20;4.18;;;;;;;;;;4989571;28;20061;-84
2022/10/13 10:41:06;;;;;;;15.25;3.72;;;;;;;;;;4980027;28;20037;-84
2022/10/13 10:43:38;;;;;;;7.32;3.55;;;;;;;;;;5028515;22;20069;-83
2022/10/13 10:46:20;;;;;;;7.90;3.65;;;;;;;;;;5011162;28;20034;-84
2022/10/13 10:48:49;;;;;;;13.10;4.03;;;;;;;;;;5015257;28;20033;-82
2022/10/13 10:51:15;;;;;;;11.85;4.57;;;;;;;;;;5008909;28;20026;-82
2022/10/13 10:54:05;;;;;;;9.55;3.28;;;;;;;;;;5004196;28;20388;-82
2022/10/13 10:56:36;;;;;;;7.15;3.55;;;;;;;;;;5014691;28;20041;-83
2022/10/13 10:59:26;;;;;;;10.70;4.13;;;;;;;;;;5017785;28;20380;-82
2022/10/13 11:02:13;;;;;;;11.68;4.07;;;;;;;;;;5018157;28;20049;-82
2022/10/13 11:04:42;;;;;;;6.50;3.45;;;;;;;;;;5014207;28;20392;-83
2022/10/13 11:07:22;;;;;;;7.72;4.10;;;;;;;;;;5013739;28;20041;-83
2022/10/13 11:09:48;;;;;;;11.85;3.40;;;;;;;;;;5036493;28;20098;-81
2022/10/13 11:12:19;;;;;;;7.28;4.00;;;;;;;;;;5041110;28;20053;-82
2022/10/13 11:14:53;;;;;;;8.68;3.95;;;;;;;;;;5041039;28;20018;-81
2022/10/13 11:17:45;;;;;;;11.80;4.05;;;;;;;;;;5040075;28;20040;-82
2022/10/13 11:20:19;;;;;;;12.48;3.75;;;;;;;;;;5029493;28;20044;-86
2022/10/13 11:22:57;;;;;;;6.28;3.88;;;;;;;;;;5013027;28;20033;-81
2022/10/13 11:25:47;;;;;;;10.65;4.03;;;;;;;;;;5038309;28;20028;-82
2022/10/13 11:28:22;;;;;;;13.05;4.18;;;;;;;;;;5038135;28;20022;-82
2022/10/13 11:30:51;;;;;;;8.88;3.78;;;;;;;;;;5056805;28;20009;-82
2022/10/13 11:33:33;;;;;;;11.77;3.72;;;;;;;;;;5048822;28;20037;-83
2022/10/13 11:36:27;;;;;;;7.47;3.85;;;;;;;;;;5033569;28;20022;-83
2022/10/13 11:39:14;;;;;;;6.88;3.70;;;;;;;;;;5021391;28;20029;-83
2022/10/13 11:42:18;;;;;;;11.32;4.25;;;;;;;;;;5019031;28;20059;-83
2022/10/13 11:44:58;;;;;;;6.78;3.53;;;;;;;;;;5011091;28;20049;-83
2022/10/13 11:48:00;;;;;;;4.93;2.90;;;;;;;;;;5032339;28;20463;-82
2022/10/13 11:51:04;;;;;;;5.47;2.92;;;;;;;;;;5039586;28;20025;-83
2022/10/13 11:53:51;;;;;;;7.78;3.47;;;;;;;;;;5014372;28;20682;-83
2022/10/13 11:56:41;;;;;;;9.10;3.70;;;;;;;;;;5003182;28;20025;-83
2022/10/13 11:59:19;;;;;;;7.82;3.92;;;;;;;;;;5011615;28;20514;-84
2022/10/13 12:01:44;;;;;;;5.38;3.10;;;;;;;;;;5020339;28;20030;-82
2022/10/13 12:04:14;;;;;;;5.47;3.42;;;;;;;;;;5030948;28;20053;-82
2022/10/13 12:06:41;;;;;;;6.13;3.35;;;;;;;;;;5041399;28;20033;-82
2022/10/13 12:09:18;;;;;;;11.05;3.60;;;;;;;;;;5042436;28;20025;-82
2022/10/13 12:11:43;;;;;;;11.60;3.85;;;;;;;;;;5023665;28;20129;-82
2022/10/13 12:14:46;;;;;;;12.85;3.63;;;;;;;;;;5023816;28;20052;-82
2022/10/13 12:17:34;;;;;;;7.90;3.40;;;;;;;;;;5035540;28;20017;-82
2022/10/13 12:20:20;;;;;;;10.63;3.72;;;;;;;;;;5024723;28;20033;-83
2022/10/13 12:22:52;;;;;;;6.70;3.22;;;;;;;;;;5021926;28;20037;-82
2022/10/13 12:25:20;;;;;;;9.50;3.50;;;;;;;;;;5019277;28;20046;-82
2022/10/13 12:27:49;;;;;;;5.55;3.40;;;;;;;;;;5021239;28;20030;-82
2022/10/13 12:30:25;;;;;;;8.75;3.10;;;;;;;;;;5019368;28;20041;-82
2022/10/13 12:32:53;;;;;;;13.65;3.78;;;;;;;;;;5025795;28;20026;-82
2022/10/13 12:35:24;;;;;;;7.80;3.92;;;;;;;;;;5039564;28;20079;-81
2022/10/13 12:37:51;;;;;;;7.72;3.88;;;;;;;;;;5021737;28;20013;-84
2022/10/13 12:40:18;;;;;;;12.98;4.32;;;;;;;;;;5020023;28;20029;-82
2022/10/13 12:42:45;;;;;;;6.57;3.70;;;;;;;;;;5017593;28;20041;-83
2022/10/13 12:45:18;;;;;;;6.10;3.33;;;;;;;;;;5020472;28;20041;-84
2022/10/13 12:47:43;;;;;;;5.70;3.55;;;;;;;;;;5019364;28;20026;-81
2022/10/13 12:50:24;;;;;;;9.05;3.50;;;;;;;;;;5015927;28;20349;-83
2022/10/13 12:52:52;;;;;;;6.32;3.25;;;;;;;;;;5016473;28;20496;-82
2022/10/13 12:55:20;;;;;;;12.57;3.65;;;;;;;;;;5023126;28;20100;-83
2022/10/13 12:57:51;;;;;;;6.72;3.63;;;;;;;;;;5038439;28;20025;-83
2022/10/13 13:00:20;;;;;;;8.50;3.80;;;;;;;;;;5036922;28;20033;-83
2022/10/13 13:03:01;;;;;;;7.68;3.50;;;;;;;;;;5020541;28;20033;-83
2022/10/13 13:05:36;;;;;;;12.40;3.65;;;;;;;;;;4999454;28;20022;-83
2022/10/13 13:08:26;;;;;;;7.60;3.28;;;;;;;;;;5038076;28;20383;-82
2022/10/13 13:10:55;;;;;;;8.90;3.88;;;;;;;;;;5039021;28;20025;-82
2022/10/13 13:13:22;;;;;;;13.90;3.70;;;;;;;;;;5038425;28;20355;-83
2022/10/13 13:15:48;;;;;;;5.93;2.80;;;;;;;;;;5039525;28;20108;-82
2022/10/13 13:18:22;;;;;;;7.03;3.25;;;;;;;;;;5039757;28;20025;-83
2022/10/13 13:20:47;;;;;;;11.55;3.22;;;;;;;;;;5039503;28;20018;-83
2022/10/13 13:23:13;;;;;;;7.18;3.42;;;;;;;;;;5036753;28;20040;-82
2022/10/13 13:25:38;;;;;;;7.20;3.17;;;;;;;;;;5034183;28;20026;-84
2022/10/13 13:28:09;;;;;;;8.27;3.33;;;;;;;;;;5038944;28;20093;-83
2022/10/13 13:30:35;;;;;;;10.93;3.35;;;;;;;;;;5039200;28;20079;-81
2022/10/13 13:33:00;;;;;;;8.70;3.08;;;;;;;;;;5026898;28;20029;-82
2022/10/13 13:35:25;;;;;;;8.55;3.17;;;;;;;;;;5031450;28;20026;-82
2022/10/13 13:37:52;;;;;;;5.00;2.97;;;;;;;;;;5018682;28;20101;-82
2022/10/13 13:40:20;;;;;;;8.13;2.50;;;;;;;;;;5019247;28;20037;-82
2022/10/13 13:42:45;;;;;;;9.48;2.97;;;;;;;;;;5018641;28;20037;-82
2022/10/13 13:45:12;;;;;;;5.70;3.38;;;;;;;;;;5017686;28;20030;-82
2022/10/13 13:47:38;;;;;;;7.47;3.42;;;;;;;;;;5018983;28;20030;-82
2022/10/13 13:50:21;;;;;;;8.07;3.10;;;;;;;;;;5018112;28;20087;-82
2022/10/13 13:52:46;;;;;;;11.38;3.88;;;;;;;;;;5017765;28;20022;-82
2022/10/13 13:55:12;;;;;;;7.00;3.63;;;;;;;;;;5023335;28;20079;-82
2022/10/13 13:57:37;;;;;;;8.20;3.53;;;;;;;;;;5039042;28;20018;-82
2022/10/13 14:00:03;;;;;;;7.25;4.43;;;;;;;;;;5034875;28;20043;-81
2022/10/13 14:02:29;;;;;;;10.18;3.97;;;;;;;;;;5021800;28;20387;-82
2022/10/13 14:04:54;;;;;;;11.50;3.72;;;;;;;;;;5027930;28;20034;-84
2022/10/13 14:07:19;;;;;;;7.10;3.63;;;;;;;;;;5038220;28;20018;-83
2022/10/13 14:09:45;;;;;;;12.63;4.20;;;;;;;;;;5036773;28;20021;-83
2022/10/13 14:12:10;;;;;;;15.10;4.00;;;;;;;;;;5038180;28;20057;-83
2022/10/13 14:14:36;;;;;;;7.93;3.50;;;;;;;;;;5036750;28;20025;-83
2022/10/13 14:17:03;;;;;;;8.45;3.67;;;;;;;;;;5038496;28;20026;-82
2022/10/13 14:19:30;;;;;;;7.95;3.83;;;;;;;;;;5037318;28;20498;-83
2022/10/13 14:21:55;;;;;;;8.93;3.75;;;;;;;;;;5019154;28;20022;-81
2022/10/13 14:24:20;;;;;;;10.60;4.18;;;;;;;;;;5010099;28;20029;-82
2022/10/13 14:26:46;;;;;;;7.85;3.70;;;;;;;;;;5025278;28;20026;-81
2022/10/13 14:29:12;;;;;;;8.95;4.57;;;;;;;;;;5035970;28;20033;-83
2022/10/13 14:31:37;;;;;;;10.77;4.65;;;;;;;;;;5023700;28;20048;-85
2022/10/13 14:34:03;;;;;;;17.67;6.15;;;;;;;;;;5031270;28;20449;-85
2022/10/13 14:36:28;;;;;;;17.33;5.68;;;;;;;;;;5036268;28;20021;-86
2022/10/13 14:38:54;;;;;;;16.65;6.18;;;;;;;;;;5036474;28;20028;-84
2022/10/13 14:41:19;;;;;;;11.38;4.80;;;;;;;;;;5028385;28;20071;-86
2022/10/13 14:43:45;;;;;;;18.75;5.82;;;;;;;;;;5013990;28;20120;-86
2022/10/13 14:46:11;;;;;;;14.63;5.55;;;;;;;;;;5029828;28;20019;-84
2022/10/13 14:48:37;;;;;;;13.77;5.82;;;;;;;;;;5038001;28;20029;-85
2022/10/13 14:51:07;;;;;;;13.40;5.53;;;;;;;;;;5036543;28;20026;-86
2022/10/13 14:53:34;;;;;;;13.07;5.78;;;;;;;;;;5013300;28;20029;-84
2022/10/13 14:56:00;;;;;;;12.48;6.00;;;;;;;;;;5014731;28;20384;-84
2022/10/13 14:58:26;;;;;;;11.82;5.53;;;;;;;;;;5011297;28;20496;-81
2022/10/13 15:00:52;;;;;;;15.15;5.55;;;;;;;;;;5013424;28;20109;-83
2022/10/13 15:03:17;;;;;;;12.43;6.50;;;;;;;;;;5002595;28;20124;-81
2022/10/13 15:05:43;;;;;;;16.15;5.88;;;;;;;;;;5007267;28;20121;-81
2022/10/13 15:08:08;;;;;;;14.05;5.63;;;;;;;;;;5003670;28;20163;-84
2022/10/13 15:10:33;;;;;;;9.25;5.82;;;;;;;;;;5005110;28;20041;-83
2022/10/13 15:12:59;;;;;;;14.93;5.80;;;;;;;;;;5000045;28;20532;-85
2022/10/13 15:15:24;;;;;;;9.02;5.80;;;;;;;;;;5021001;28;20022;-82
2022/10/13 15:17:50;;;;;;;11.35;5.65;;;;;;;;;;5003436;28;20026;-82
2022/10/13 15:20:15;;;;;;;22.60;6.53;;;;;;;;;;5015768;28;20025;-83
2022/10/13 15:22:40;;;;;;;16.58;5.80;;;;;;;;;;5007009;28;20082;-82
2022/10/13 15:25:09;;;;;;;15.98;5.72;;;;;;;;;;5029494;28;20025;-82
2022/10/13 15:27:35;;;;;;;15.82;6.25;;;;;;;;;;5023232;28;20038;-81